Time;durP1;ratioP1;P1;durP2;ratioP2;P2;SDS_P1;SDS_P2;PMS_P1;PMS_P2;Temp;Humidity;BMP_temperature;BMP_pressure;BME280_temperature;BME280_humidity;BME280_pressure;Samples;Min_cycle;Max_cycle;Signal;HPM_P1;HPM_P2
2021/05/29 00:01:58;;;;;;;3.35;1.88;;;11.90;99.90;;;;;;4966161;28;20093;-67
2021/05/29 00:04:23;;;;;;;3.17;1.30;;;11.90;99.90;;;;;;4967843;28;20031;-68
2021/05/29 00:06:49;;;;;;;3.28;1.80;;;11.80;99.90;;;;;;4967861;28;20041;-68
2021/05/29 00:09:15;;;;;;;4.47;1.85;;;11.80;99.90;;;;;;4982397;28;20045;-67
2021/05/29 00:11:40;;;;;;;3.15;1.40;;;11.80;99.90;;;;;;4968159;28;20047;-69
2021/05/29 00:14:06;;;;;;;3.42;1.83;;;11.80;99.90;;;;;;4968422;28;20039;-68
2021/05/29 00:16:31;;;;;;;3.25;1.80;;;11.80;99.90;;;;;;4981754;28;20514;-67
2021/05/29 00:18:57;;;;;;;6.60;1.60;;;11.70;99.90;;;;;;4967911;28;20054;-68
2021/05/29 00:21:22;;;;;;;5.22;2.25;;;11.60;99.90;;;;;;4967331;28;20038;-68
2021/05/29 00:23:48;;;;;;;3.58;2.25;;;11.60;99.90;;;;;;4967605;28;20039;-67
2021/05/29 00:26:13;;;;;;;2.70;1.40;;;11.50;99.90;;;;;;4967570;28;20026;-68
2021/05/29 00:28:39;;;;;;;3.28;1.73;;;11.50;99.90;;;;;;4966032;28;20034;-67
2021/05/29 00:31:05;;;;;;;4.53;1.60;;;11.40;99.90;;;;;;4967723;28;20043;-66
2021/05/29 00:33:31;;;;;;;2.45;1.55;;;11.50;99.90;;;;;;4963584;28;20047;-68
2021/05/29 00:35:57;;;;;;;3.35;2.15;;;11.40;99.90;;;;;;4967734;28;20099;-68
2021/05/29 00:38:22;;;;;;;6.13;2.17;;;11.50;99.90;;;;;;4969449;28;20041;-69
2021/05/29 00:40:48;;;;;;;4.70;1.67;;;11.40;99.90;;;;;;4967381;28;20049;-66
2021/05/29 00:43:14;;;;;;;4.20;1.92;;;11.40;99.90;;;;;;4967820;28;20065;-69
2021/05/29 00:45:39;;;;;;;4.63;2.30;;;11.40;99.90;;;;;;4967462;28;20027;-67
2021/05/29 00:48:06;;;;;;;7.65;2.38;;;11.30;99.90;;;;;;4967293;28;20557;-68
2021/05/29 00:50:32;;;;;;;3.75;1.98;;;11.30;99.90;;;;;;4967267;28;20097;-68
2021/05/29 00:52:59;;;;;;;4.20;1.77;;;11.20;99.90;;;;;;4968008;28;20027;-69
2021/05/29 00:55:24;;;;;;;3.20;1.70;;;11.20;99.90;;;;;;4967146;28;20035;-67
2021/05/29 00:57:51;;;;;;;4.05;1.70;;;11.20;99.90;;;;;;4968170;28;20609;-68
2021/05/29 01:00:20;;;;;;;5.90;1.48;;;11.10;99.90;;;;;;4967086;28;20031;-68
2021/05/29 01:02:47;;;;;;;3.67;1.30;;;11.00;99.90;;;;;;4970370;28;20042;-69
2021/05/29 01:05:16;;;;;;;5.10;1.52;;;11.10;99.90;;;;;;4970655;28;20038;-68
2021/05/29 01:07:42;;;;;;;3.10;1.42;;;11.00;99.90;;;;;;4970115;28;20078;-68
2021/05/29 01:10:08;;;;;;;5.18;1.58;;;11.00;99.90;;;;;;4970884;28;20038;-68
2021/05/29 01:12:35;;;;;;;2.83;1.40;;;11.00;99.90;;;;;;4970137;28;20109;-68
2021/05/29 01:15:04;;;;;;;3.17;1.75;;;11.00;99.90;;;;;;4970537;28;20228;-67
2021/05/29 01:17:30;;;;;;;4.47;1.65;;;10.90;99.90;;;;;;4970606;28;20038;-68
2021/05/29 01:19:56;;;;;;;6.68;1.75;;;11.00;99.90;;;;;;4970035;28;20162;-67
2021/05/29 01:22:57;;;;;;;5.53;1.55;;;10.90;99.90;;;;;;4966510;28;20090;-67
2021/05/29 01:25:25;;;;;;;4.93;1.50;;;10.90;99.90;;;;;;4970605;28;20038;-69
2021/05/29 01:28:25;;;;;;;7.68;2.05;;;10.90;99.90;;;;;;4970320;28;20046;-68
2021/05/29 01:30:52;;;;;;;;;;;10.80;99.90;;;;;;4967320;28;20046;-68
2021/05/29 01:33:21;;;;;;;2.90;1.42;;;10.80;99.90;;;;;;4970600;28;19936;-67
2021/05/29 01:35:48;;;;;;;3.50;1.90;;;10.70;99.90;;;;;;4970796;28;20114;-68
2021/05/29 01:38:16;;;;;;;6.15;1.70;;;10.80;99.90;;;;;;4967304;28;20035;-68
2021/05/29 01:40:42;;;;;;;5.50;1.55;;;10.80;99.90;;;;;;4985690;28;20034;-68
2021/05/29 01:43:11;;;;;;;4.65;1.88;;;10.70;99.90;;;;;;4969765;28;20035;-67
2021/05/29 01:45:37;;;;;;;5.50;2.05;;;10.70;99.90;;;;;;4970377;28;20054;-68
2021/05/29 01:48:05;;;;;;;6.38;1.65;;;10.70;99.90;;;;;;4970335;28;20031;-67
2021/05/29 01:50:32;;;;;;;2.95;1.75;;;10.60;99.90;;;;;;4985708;28;20074;-67
2021/05/29 01:53:02;;;;;;;2.97;1.55;;;10.60;99.90;;;;;;4972525;28;20058;-68
2021/05/29 01:55:29;;;;;;;4.43;2.07;;;10.60;99.90;;;;;;4971755;28;20035;-67
2021/05/29 01:57:56;;;;;;;3.08;1.73;;;10.60;99.90;;;;;;4972654;28;20269;-68
2021/05/29 02:00:25;;;;;;;2.65;1.63;;;10.50;99.90;;;;;;4972259;28;20031;-68
2021/05/29 02:02:51;;;;;;;4.28;1.73;;;10.50;99.90;;;;;;4968571;28;20050;-68
2021/05/29 02:05:22;;;;;;;6.07;2.42;;;10.40;99.90;;;;;;4969894;28;20027;-68
2021/05/29 02:07:49;;;;;;;3.00;1.25;;;10.40;99.90;;;;;;4969542;28;20035;-68
2021/05/29 02:10:19;;;;;;;2.28;1.30;;;10.40;99.90;;;;;;4968069;28;20046;-68
2021/05/29 02:12:47;;;;;;;3.25;1.20;;;10.30;99.90;;;;;;4969524;28;20088;-66
2021/05/29 02:15:18;;;;;;;4.90;1.50;;;10.30;99.90;;;;;;4969346;28;20166;-68
2021/05/29 02:17:46;;;;;;;2.58;1.50;;;10.30;99.90;;;;;;4969024;28;20065;-68
2021/05/29 02:20:12;;;;;;;3.28;1.48;;;10.30;99.90;;;;;;4970050;28;20035;-69
2021/05/29 02:22:38;;;;;;;2.90;1.30;;;10.30;99.90;;;;;;4969241;28;20038;-70
2021/05/29 02:25:05;;;;;;;4.90;1.38;;;10.20;99.90;;;;;;4984731;28;20061;-69
2021/05/29 02:27:31;;;;;;;4.13;1.38;;;10.20;99.90;;;;;;4969789;28;20042;-69
2021/05/29 02:29:57;;;;;;;3.50;1.35;;;10.20;99.90;;;;;;4963385;28;20027;-69
2021/05/29 02:32:22;;;;;;;7.20;1.55;;;10.10;99.90;;;;;;4963818;28;20087;-70
2021/05/29 02:34:48;;;;;;;3.85;1.48;;;10.10;99.90;;;;;;4968677;28;20828;-70
2021/05/29 02:37:14;;;;;;;2.50;1.38;;;10.10;99.90;;;;;;4966853;28;20027;-70
2021/05/29 02:39:40;;;;;;;6.38;1.80;;;10.10;99.90;;;;;;4979603;28;20109;-69
2021/05/29 02:42:06;;;;;;;3.88;1.92;;;10.10;99.90;;;;;;4968850;28;20434;-69
2021/05/29 02:44:31;;;;;;;3.00;1.55;;;10.00;99.90;;;;;;4969272;28;20043;-69
2021/05/29 02:46:57;;;;;;;6.05;1.67;;;10.00;99.90;;;;;;4968866;28;20033;-69
2021/05/29 02:49:23;;;;;;;5.07;1.58;;;10.00;99.90;;;;;;4968660;28;20027;-69
2021/05/29 02:51:49;;;;;;;5.13;1.75;;;10.00;99.90;;;;;;4968741;28;20088;-70
2021/05/29 02:54:15;;;;;;;2.45;1.30;;;9.90;99.90;;;;;;4968941;28;20039;-69
2021/05/29 02:56:40;;;;;;;3.95;1.50;;;9.90;99.90;;;;;;4968825;28;20050;-70
2021/05/29 02:59:06;;;;;;;3.08;1.60;;;9.80;99.90;;;;;;4967765;28;21621;-69
2021/05/29 03:01:32;;;;;;;3.40;1.70;;;9.80;99.90;;;;;;4969194;28;20058;-69
2021/05/29 03:03:58;;;;;;;2.83;1.80;;;9.80;99.90;;;;;;4979181;28;20027;-70
2021/05/29 03:06:23;;;;;;;2.83;1.30;;;9.80;99.90;;;;;;4968556;28;20153;-69
2021/05/29 03:08:49;;;;;;;3.17;2.05;;;9.70;99.90;;;;;;4968363;28;20030;-69
2021/05/29 03:11:15;;;;;;;4.03;1.75;;;9.60;99.90;;;;;;4968358;28;20042;-69
2021/05/29 03:13:40;;;;;;;3.03;1.63;;;9.70;99.90;;;;;;4969096;28;20431;-69
2021/05/29 03:16:06;;;;;;;4.53;2.28;;;9.60;99.90;;;;;;4966700;28;20038;-70
2021/05/29 03:18:31;;;;;;;4.90;2.20;;;9.50;99.90;;;;;;4968290;28;20122;-69
2021/05/29 03:20:58;;;;;;;4.30;1.88;;;9.50;99.90;;;;;;4966068;28;20027;-70
2021/05/29 03:23:24;;;;;;;4.22;1.80;;;9.50;99.90;;;;;;4968702;28;20030;-69
2021/05/29 03:25:50;;;;;;;3.85;2.10;;;9.50;99.90;;;;;;4967028;28;20043;-69
2021/05/29 03:28:16;;;;;;;3.25;1.63;;;9.40;99.90;;;;;;4967489;28;20034;-69
2021/05/29 03:30:42;;;;;;;4.07;1.52;;;9.40;99.90;;;;;;4966848;28;20035;-69
2021/05/29 03:33:08;;;;;;;3.25;1.65;;;9.40;99.90;;;;;;4966461;28;20049;-69
2021/05/29 03:35:34;;;;;;;4.60;1.65;;;9.40;99.90;;;;;;4982824;28;20046;-70
2021/05/29 03:37:59;;;;;;;4.07;2.05;;;9.30;99.90;;;;;;4977792;28;20039;-70
2021/05/29 03:40:25;;;;;;;4.05;1.90;;;9.30;99.90;;;;;;4968152;28;20038;-68
2021/05/29 03:42:51;;;;;;;6.05;1.70;;;9.30;99.90;;;;;;4968306;28;20046;-69
2021/05/29 03:45:18;;;;;;;4.32;1.90;;;9.30;99.90;;;;;;4967591;28;20034;-69
2021/05/29 03:47:45;;;;;;;5.03;2.20;;;9.20;99.90;;;;;;4964356;28;20046;-69
2021/05/29 03:50:14;;;;;;;12.95;1.75;;;9.20;99.90;;;;;;4967546;28;20071;-69
2021/05/29 03:52:41;;;;;;;6.07;1.98;;;9.20;99.90;;;;;;4968646;28;20816;-69
2021/05/29 03:55:08;;;;;;;4.05;2.15;;;9.20;99.90;;;;;;4967205;28;20046;-69
2021/05/29 03:57:34;;;;;;;3.85;1.60;;;9.20;99.90;;;;;;4968132;28;20038;-70
2021/05/29 03:59:59;;;;;;;5.97;2.22;;;9.20;99.90;;;;;;4967933;28;20498;-69
2021/05/29 04:02:25;;;;;;;4.47;2.17;;;9.30;99.90;;;;;;4966283;28;20530;-69
2021/05/29 04:04:51;;;;;;;3.53;1.95;;;9.20;99.90;;;;;;4970379;28;20483;-69
2021/05/29 04:07:16;;;;;;;3.22;1.73;;;9.20;99.90;;;;;;4968102;28;20058;-70
2021/05/29 04:09:42;;;;;;;2.60;1.52;;;9.30;99.90;;;;;;4968252;28;20027;-69
2021/05/29 04:12:08;;;;;;;3.33;1.60;;;9.30;99.90;;;;;;4974584;28;20431;-70
2021/05/29 04:14:34;;;;;;;4.85;2.13;;;9.30;99.90;;;;;;4968511;28;20043;-69
2021/05/29 04:17:01;;;;;;;4.05;1.77;;;9.30;99.90;;;;;;4977827;28;20034;-69
2021/05/29 04:19:26;;;;;;;6.55;2.35;;;9.30;99.90;;;;;;4966419;28;20039;-69
2021/05/29 04:21:52;;;;;;;8.25;2.53;;;9.30;99.90;;;;;;4968430;28;20402;-69
2021/05/29 04:24:18;;;;;;;3.60;1.75;;;9.30;99.90;;;;;;4968097;28;20491;-70
2021/05/29 04:26:43;;;;;;;4.25;2.03;;;9.40;99.90;;;;;;4968832;28;20035;-70
2021/05/29 04:29:09;;;;;;;3.13;1.80;;;9.40;99.90;;;;;;4967872;28;20034;-69
2021/05/29 04:31:34;;;;;;;3.92;2.25;;;9.40;99.90;;;;;;4968879;28;20138;-70
2021/05/29 04:34:00;;;;;;;4.68;2.13;;;9.40;99.90;;;;;;4973212;28;20050;-70
2021/05/29 04:36:25;;;;;;;3.80;2.20;;;9.50;99.90;;;;;;4972257;28;20408;-68
2021/05/29 04:38:51;;;;;;;4.95;2.10;;;9.50;99.90;;;;;;4960816;28;20495;-67
2021/05/29 04:41:16;;;;;;;1.88;1.42;;;9.60;99.90;;;;;;4971070;28;20507;-68
2021/05/29 04:43:42;;;;;;;5.28;1.98;;;9.60;99.90;;;;;;4971877;28;20489;-68
2021/05/29 04:46:08;;;;;;;4.65;1.90;;;9.60;99.90;;;;;;4971233;28;20054;-67
2021/05/29 04:48:33;;;;;;;6.40;2.00;;;9.70;99.90;;;;;;4970526;28;20038;-70
2021/05/29 04:51:17;;;;;;;4.82;2.22;;;9.70;99.90;;;;;;4971530;28;20049;-67
2021/05/29 04:53:45;;;;;;;4.07;2.20;;;9.80;99.90;;;;;;4968190;28;20487;-69
2021/05/29 04:56:13;;;;;;;7.78;2.05;;;9.90;99.90;;;;;;4970151;28;20042;-68
2021/05/29 04:58:39;;;;;;;5.75;2.40;;;10.00;99.90;;;;;;4970490;28;20052;-68
2021/05/29 05:01:09;;;;;;;3.25;1.95;;;10.10;99.90;;;;;;4971233;28;20031;-68
2021/05/29 05:03:35;;;;;;;7.27;2.03;;;10.20;99.90;;;;;;4971117;28;20125;-68
2021/05/29 05:06:01;;;;;;;7.47;2.45;;;10.30;99.90;;;;;;4970945;28;20325;-68
2021/05/29 05:08:26;;;;;;;6.50;1.73;;;10.30;99.90;;;;;;4970784;28;20042;-68
2021/05/29 05:10:55;;;;;;;4.78;2.47;;;10.40;99.90;;;;;;4969363;28;20035;-68
2021/05/29 05:13:20;;;;;;;4.70;1.90;;;10.50;99.90;;;;;;4970904;28;20058;-68
2021/05/29 05:15:46;;;;;;;5.32;2.15;;;10.50;99.90;;;;;;4970071;28;20054;-69
2021/05/29 05:18:12;;;;;;;4.43;2.00;;;10.50;99.90;;;;;;4970768;28;20027;-68
2021/05/29 05:20:38;;;;;;;6.15;2.00;;;10.60;99.90;;;;;;4971098;28;20034;-68
2021/05/29 05:23:05;;;;;;;4.60;2.00;;;10.60;99.90;;;;;;4970320;28;20053;-68
2021/05/29 05:25:32;;;;;;;4.68;2.08;;;10.80;99.90;;;;;;4970476;28;20493;-68
2021/05/29 05:27:58;;;;;;;6.95;2.20;;;10.90;99.90;;;;;;4985087;28;20035;-68
2021/05/29 05:30:24;;;;;;;5.05;2.00;;;11.00;99.90;;;;;;4971562;28;20059;-68
2021/05/29 05:32:50;;;;;;;3.72;2.20;;;11.30;99.90;;;;;;4970104;28;20499;-69
2021/05/29 05:35:17;;;;;;;4.85;2.20;;;11.70;99.90;;;;;;4986686;28;20019;-68
2021/05/29 05:37:44;;;;;;;3.55;1.63;;;12.00;99.90;;;;;;4966129;28;20119;-68
2021/05/29 05:40:10;;;;;;;3.85;2.05;;;12.40;99.90;;;;;;4970237;28;20055;-68
2021/05/29 05:42:37;;;;;;;4.68;1.73;;;12.80;99.90;;;;;;4970233;28;20666;-67
2021/05/29 05:45:05;;;;;;;6.97;2.25;;;13.20;99.90;;;;;;4968632;28;20447;-68
2021/05/29 05:47:30;;;;;;;3.53;1.73;;;13.50;99.90;;;;;;4969554;28;20518;-68
2021/05/29 05:49:56;;;;;;;5.35;1.92;;;13.80;99.90;;;;;;4968506;28;20067;-68
2021/05/29 05:52:22;;;;;;;6.55;2.22;;;14.00;99.90;;;;;;4969649;28;20110;-68
2021/05/29 05:54:47;;;;;;;5.20;2.33;;;14.20;99.90;;;;;;4969298;28;20073;-67
2021/05/29 05:57:14;;;;;;;5.30;1.95;;;14.50;99.90;;;;;;4968588;28;20042;-69
2021/05/29 05:59:40;;;;;;;3.95;2.45;;;14.70;99.90;;;;;;4969185;28;20031;-68
2021/05/29 06:02:06;;;;;;;4.80;1.90;;;14.90;99.90;;;;;;4964324;28;20110;-68
2021/05/29 06:04:32;;;;;;;5.20;1.83;;;15.30;99.90;;;;;;4968707;28;20027;-68
2021/05/29 06:06:58;;;;;;;4.05;1.95;;;15.60;99.90;;;;;;4967997;28;20027;-69
2021/05/29 06:09:23;;;;;;;5.68;2.05;;;16.00;99.90;;;;;;4968552;28;20414;-70
2021/05/29 06:11:49;;;;;;;3.60;1.70;;;16.50;99.90;;;;;;4967759;28;20030;-70
2021/05/29 06:19:46;;;;;;;6.18;2.00;;;18.60;99.90;;;;;;4967770;28;20411;-70
2021/05/29 06:22:12;;;;;;;4.70;2.17;;;19.50;99.90;;;;;;4967076;28;20600;-70
2021/05/29 06:24:37;;;;;;;4.30;2.38;;;20.20;96.90;;;;;;4968430;28;20035;-71
2021/05/29 06:27:04;;;;;;;4.13;2.08;;;21.30;91.90;;;;;;4967990;28;20030;-70
2021/05/29 06:29:30;;;;;;;5.47;2.28;;;22.30;88.20;;;;;;4968326;28;20046;-70
2021/05/29 06:31:55;;;;;;;3.47;2.25;;;23.30;82.90;;;;;;4967174;28;20064;-73
2021/05/29 06:34:21;;;;;;;3.50;2.88;;;24.00;72.20;;;;;;4969262;28;20039;-70
2021/05/29 06:36:48;;;;;;;7.45;2.75;;;24.90;68.60;;;;;;4964395;28;20035;-70
2021/05/29 06:39:13;;;;;;;5.88;2.90;;;25.60;62.60;;;;;;4979043;28;20034;-69
2021/05/29 06:41:40;;;;;;;4.68;2.20;;;25.20;62.10;;;;;;4969721;28;20097;-70
2021/05/29 06:44:07;;;;;;;4.97;2.65;;;25.80;61.60;;;;;;4968463;28;20061;-71
2021/05/29 06:46:33;;;;;;;4.75;2.95;;;26.00;60.00;;;;;;4968561;28;20121;-71
2021/05/29 06:49:00;;;;;;;7.78;3.00;;;26.30;57.70;;;;;;4966152;28;20149;-71
2021/05/29 06:51:40;;;;;;;6.75;3.80;;;26.50;57.60;;;;;;4969957;28;20043;-71
2021/05/29 06:54:22;;;;;;;5.55;3.53;;;26.30;56.80;;;;;;4958812;28;20577;-71
2021/05/29 06:59:32;;;;;;;7.60;3.70;;;26.40;56.90;;;;;;4967856;28;20150;-72
2021/05/29 07:01:58;;;;;;;8.27;3.63;;;26.40;57.00;;;;;;4968816;28;20082;-71
2021/05/29 07:04:24;;;;;;;6.05;3.28;;;27.10;55.50;;;;;;4967126;28;20043;-72
2021/05/29 07:06:50;;;;;;;5.18;3.25;;;27.70;54.60;;;;;;4964032;28;20042;-71
2021/05/29 07:09:19;;;;;;;5.03;3.63;;;27.90;52.00;;;;;;4968129;28;20040;-72
2021/05/29 07:11:45;;;;;;;5.22;3.22;;;27.30;52.70;;;;;;4964845;28;20134;-69
2021/05/29 07:14:10;;;;;;;5.13;3.50;;;27.60;52.20;;;;;;4962146;28;20130;-72
2021/05/29 07:16:38;;;;;;;8.93;3.20;;;27.60;51.90;;;;;;4983463;28;20056;-71
2021/05/29 07:19:03;;;;;;;4.50;2.88;;;27.20;52.90;;;;;;4966172;28;20031;-71
2021/05/29 07:21:29;;;;;;;7.50;4.10;;;27.30;52.30;;;;;;4959221;28;20045;-72
2021/05/29 07:23:55;;;;;;;5.50;3.38;;;27.60;54.20;;;;;;4967040;28;20059;-72
2021/05/29 07:26:21;;;;;;;5.95;3.22;;;28.20;52.50;;;;;;4978460;28;20039;-72
2021/05/29 07:28:47;;;;;;;7.63;4.00;;;27.70;51.10;;;;;;4965484;28;20398;-72
2021/05/29 07:31:12;;;;;;;6.28;3.63;;;27.80;52.40;;;;;;4960957;28;20086;-72
2021/05/29 07:33:38;;;;;;;7.15;3.75;;;28.60;50.80;;;;;;4966304;28;20030;-72
2021/05/29 07:36:04;;;;;;;5.97;3.78;;;28.60;51.00;;;;;;4968395;28;20657;-72
2021/05/29 07:38:30;;;;;;;7.03;3.60;;;29.10;50.00;;;;;;4963618;28;20049;-70
2021/05/29 07:40:56;;;;;;;6.05;4.30;;;28.90;48.80;;;;;;4966627;28;20027;-70
2021/05/29 07:43:22;;;;;;;5.15;3.72;;;28.90;49.40;;;;;;4963907;28;20595;-71
2021/05/29 07:45:49;;;;;;;6.55;3.85;;;28.30;50.20;;;;;;4963910;28;20031;-70
2021/05/29 07:48:15;;;;;;;5.28;3.78;;;28.60;49.90;;;;;;4964542;28;20050;-71
2021/05/29 07:50:57;;;;;;;8.93;4.75;;;28.20;50.50;;;;;;4966233;28;20039;-71
2021/05/29 07:53:24;;;;;;;6.88;4.40;;;28.00;51.20;;;;;;4965902;28;20089;-72
2021/05/29 07:55:50;;;;;;;5.85;4.43;;;28.20;50.50;;;;;;4966151;28;20027;-72
2021/05/29 07:58:15;;;;;;;8.70;4.88;;;28.60;50.10;;;;;;4966410;28;20039;-71
2021/05/29 08:00:44;;;;;;;4.82;4.32;;;28.30;49.70;;;;;;4965476;28;20031;-71
2021/05/29 08:03:09;;;;;;;4.90;3.83;;;28.50;49.90;;;;;;4966715;28;20047;-71
2021/05/29 08:05:35;;;;;;;9.60;4.93;;;28.40;50.30;;;;;;4967379;28;20049;-70
2021/05/29 08:08:01;;;;;;;7.38;4.68;;;28.00;49.50;;;;;;4968186;28;20050;-70
2021/05/29 08:10:26;;;;;;;7.82;4.38;;;28.10;50.30;;;;;;4970225;28;20051;-70
2021/05/29 08:12:52;;;;;;;8.68;4.68;;;27.70;50.50;;;;;;4970858;28;20079;-70
2021/05/29 08:15:17;;;;;;;8.27;4.35;;;28.10;50.30;;;;;;4973283;28;20069;-71
2021/05/29 08:17:43;;;;;;;7.47;4.25;;;27.90;49.60;;;;;;4970951;28;20534;-71
2021/05/29 08:20:09;;;;;;;7.60;4.63;;;27.80;50.30;;;;;;4973895;28;20023;-69
2021/05/29 08:22:35;;;;;;;7.22;4.72;;;27.40;50.80;;;;;;4984111;28;20083;-69
2021/05/29 08:25:00;;;;;;;5.38;3.70;;;27.70;50.10;;;;;;4975273;28;20046;-69
2021/05/29 08:27:26;;;;;;;6.13;4.25;;;27.30;50.60;;;;;;4977598;28;20058;-70
2021/05/29 08:29:52;;;;;;;5.95;3.97;;;27.10;50.50;;;;;;4978737;28;20035;-69
2021/05/29 08:32:17;;;;;;;7.97;4.43;;;26.80;51.50;;;;;;4983434;28;20042;-69
2021/05/29 08:34:43;;;;;;;7.05;4.05;;;26.80;51.30;;;;;;4984072;28;20043;-69
2021/05/29 08:37:09;;;;;;;6.13;3.63;;;27.00;50.90;;;;;;4974129;28;20041;-69
2021/05/29 08:39:35;;;;;;;5.13;3.83;;;26.60;50.50;;;;;;4974247;28;20053;-70
2021/05/29 08:42:04;;;;;;;5.80;3.80;;;26.50;51.10;;;;;;4971532;28;20127;-70
2021/05/29 08:44:31;;;;;;;7.00;3.20;;;26.00;51.10;;;;;;4973687;28;20681;-71
2021/05/29 08:46:57;;;;;;;5.78;3.17;;;25.80;51.70;;;;;;4974345;28;20495;-72
2021/05/29 08:49:23;;;;;;;4.50;2.83;;;25.70;52.60;;;;;;4973724;28;20147;-70
2021/05/29 08:51:49;;;;;;;5.68;3.05;;;25.40;52.20;;;;;;4973726;28;20156;-71
2021/05/29 08:54:15;;;;;;;7.05;3.35;;;25.10;52.90;;;;;;4971920;28;20027;-71
2021/05/29 08:56:41;;;;;;;3.85;2.28;;;24.70;54.00;;;;;;4973958;28;20054;-69
2021/05/29 08:59:06;;;;;;;3.78;2.47;;;24.40;55.40;;;;;;4973641;28;20078;-69
2021/05/29 09:01:32;;;;;;;4.80;2.58;;;23.80;55.60;;;;;;4975786;28;20395;-70
2021/05/29 09:04:00;;;;;;;4.32;1.98;;;23.30;56.10;;;;;;4975601;28;20510;-70
2021/05/29 09:06:26;;;;;;;5.90;2.05;;;23.30;57.10;;;;;;4987003;28;20039;-71
2021/05/29 09:08:56;;;;;;;5.45;2.83;;;23.10;58.20;;;;;;4973730;28;20042;-68
2021/05/29 09:11:51;;;;;;;;;;;22.90;57.60;;;;;;4976621;28;20058;-68
2021/05/29 09:14:29;;;;;;;5.82;2.15;;;22.70;58.70;;;;;;4974380;28;19921;-68
2021/05/29 09:17:19;;;;;;;5.82;2.25;;;22.50;57.60;;;;;;4976664;28;20047;-70
2021/05/29 09:19:56;;;;;;;3.53;1.85;;;22.30;60.60;;;;;;4973550;28;20811;-70
2021/05/29 09:22:40;;;;;;;4.45;2.67;;;21.90;58.30;;;;;;4991042;28;20043;-70
2021/05/29 09:25:06;;;;;;;3.70;2.17;;;21.90;59.00;;;;;;4965611;28;20047;-70
2021/05/29 09:27:54;;;;;;;3.47;1.92;;;21.70;59.50;;;;;;4979771;28;20053;-71
2021/05/29 09:30:37;;;;;;;4.00;2.55;;;21.70;61.80;;;;;;4969825;28;20047;-69
2021/05/29 09:33:23;;;;;;;4.60;2.70;;;21.60;61.20;;;;;;4968610;28;20107;-71
2021/05/29 09:36:09;;;;;;;3.13;2.13;;;21.40;62.80;;;;;;4969633;28;20650;-71
2021/05/29 09:38:44;;;;;;;4.00;2.17;;;21.40;63.20;;;;;;4983789;28;20053;-71
2021/05/29 09:41:30;;;;;;;7.05;2.03;;;21.40;62.00;;;;;;4968763;28;20383;-70
2021/05/29 09:43:59;;;;;;;3.35;1.48;;;21.30;61.10;;;;;;4962598;28;20058;-70
2021/05/29 09:46:25;;;;;;;5.88;2.45;;;21.30;60.30;;;;;;4970613;28;20041;-70
2021/05/29 09:48:56;;;;;;;4.13;2.38;;;21.20;62.30;;;;;;4968292;28;20111;-71
2021/05/29 09:51:23;;;;;;;4.35;1.95;;;21.20;62.40;;;;;;4965838;28;20466;-70
2021/05/29 09:53:50;;;;;;;5.18;1.90;;;21.20;61.70;;;;;;4973765;28;20027;-71
2021/05/29 09:56:25;;;;;;;5.18;1.73;;;21.00;60.80;;;;;;4976104;28;20149;-71
2021/05/29 09:58:53;;;;;;;5.85;2.17;;;21.00;62.90;;;;;;4969101;28;20133;-71
2021/05/29 10:01:54;;;;;;;3.63;1.88;;;21.10;62.60;;;;;;4969826;28;20058;-71
2021/05/29 10:04:22;;;;;;;5.75;2.60;;;21.30;62.40;;;;;;4971608;28;20061;-70
2021/05/29 10:06:58;;;;;;;5.40;2.90;;;21.40;64.70;;;;;;4970990;28;20031;-70
2021/05/29 10:09:24;;;;;;;5.20;2.78;;;21.40;64.00;;;;;;4965251;28;20039;-70
2021/05/29 10:11:49;;;;;;;5.90;2.97;;;21.30;64.40;;;;;;4969642;28;20039;-70
2021/05/29 10:14:15;;;;;;;5.80;2.53;;;21.20;63.70;;;;;;4964952;28;20043;-70
2021/05/29 10:16:41;;;;;;;6.70;2.60;;;21.10;64.20;;;;;;4982417;28;20038;-71
2021/05/29 10:19:09;;;;;;;4.65;2.33;;;21.00;64.50;;;;;;4967077;28;20031;-70
2021/05/29 10:21:36;;;;;;;8.63;3.00;;;20.90;65.10;;;;;;4966687;28;20042;-70
2021/05/29 10:24:04;;;;;;;4.65;2.33;;;21.10;66.20;;;;;;4982076;28;20035;-71
2021/05/29 10:26:33;;;;;;;7.25;2.80;;;20.90;66.80;;;;;;4966120;28;20086;-71
2021/05/29 10:29:00;;;;;;;4.38;2.20;;;20.70;66.20;;;;;;4966560;28;20126;-70
2021/05/29 10:31:31;;;;;;;3.30;2.13;;;20.70;67.10;;;;;;4959303;28;20057;-71
2021/05/29 10:33:57;;;;;;;3.72;2.33;;;20.80;64.60;;;;;;4969100;28;20030;-71
2021/05/29 10:36:38;;;;;;;4.10;2.55;;;20.80;65.10;;;;;;4965958;28;20038;-70
2021/05/29 10:39:07;;;;;;;4.43;2.33;;;20.80;66.10;;;;;;4968755;28;20081;-70
2021/05/29 10:41:56;;;;;;;5.40;2.67;;;20.90;64.90;;;;;;4974421;28;20049;-70
2021/05/29 10:44:35;;;;;;;6.40;2.65;;;20.80;65.20;;;;;;4973306;28;20046;-71
2021/05/29 10:47:20;;;;;;;4.75;2.95;;;20.60;65.90;;;;;;4968101;28;20045;-70
2021/05/29 10:49:59;;;;;;;6.47;2.72;;;20.50;68.90;;;;;;4966530;28;20046;-70
2021/05/29 10:52:34;;;;;;;5.03;2.35;;;20.40;66.20;;;;;;4970622;28;20062;-71
2021/05/29 10:55:11;;;;;;;5.80;2.28;;;20.50;68.20;;;;;;4971415;28;20035;-70
2021/05/29 10:58:02;;;;;;;7.03;2.33;;;20.50;67.50;;;;;;4957361;28;20035;-71
2021/05/29 11:00:41;;;;;;;4.35;1.92;;;20.60;66.30;;;;;;4962656;28;20248;-71
2021/05/29 11:03:25;;;;;;;2.83;1.60;;;20.60;67.60;;;;;;4966721;28;20035;-69
2021/05/29 11:05:54;;;;;;;3.85;2.25;;;20.70;64.40;;;;;;4964302;28;20089;-69
2021/05/29 11:08:44;;;;;;;5.43;2.65;;;20.70;66.10;;;;;;4966560;28;20097;-69
2021/05/29 11:14:06;;;;;;;4.50;2.00;;;20.40;68.20;;;;;;4965439;28;20492;-69
2021/05/29 11:17:07;;;;;;;4.90;1.60;;;20.30;67.90;;;;;;4955190;28;20035;-69
2021/05/29 11:19:35;;;;;;;2.28;1.50;;;20.40;67.40;;;;;;4929739;28;20806;-69
2021/05/29 11:22:11;;;;;;;3.97;1.80;;;20.20;67.60;;;;;;4962644;28;20043;-69
2021/05/29 11:24:43;;;;;;;5.40;1.98;;;20.10;67.60;;;;;;4962874;28;20047;-70
2021/05/29 11:27:22;;;;;;;5.75;2.10;;;20.30;68.90;;;;;;4963504;28;20039;-69
2021/05/29 11:29:56;;;;;;;3.42;1.88;;;20.30;67.30;;;;;;4963859;28;20129;-69
2021/05/29 11:35:45;;;;;;;3.95;1.77;;;20.30;66.50;;;;;;4963109;28;20122;-71
2021/05/29 11:38:38;;;;;;;4.32;2.30;;;20.20;68.10;;;;;;4969426;28;20738;-69
2021/05/29 11:41:18;;;;;;;3.78;1.83;;;20.20;69.60;;;;;;4967285;28;20031;-70
2021/05/29 11:43:53;;;;;;;4.82;2.35;;;20.30;69.60;;;;;;4964396;28;20518;-66
2021/05/29 11:46:26;;;;;;;4.05;1.63;;;20.00;68.10;;;;;;4966062;28;20097;-69
2021/05/29 11:48:59;;;;;;;3.40;1.40;;;20.00;68.30;;;;;;4962712;28;20566;-69
2021/05/29 11:51:26;;;;;;;5.07;2.00;;;20.00;69.40;;;;;;4966428;28;20133;-69
2021/05/29 11:53:57;;;;;;;6.13;2.03;;;19.90;69.80;;;;;;4967461;28;20038;-69
2021/05/29 11:56:36;;;;;;;2.78;1.90;;;19.70;69.70;;;;;;4968376;28;20039;-69
2021/05/29 11:59:05;;;;;;;7.10;1.90;;;19.80;70.50;;;;;;4964621;28;20050;-69
2021/05/29 12:01:35;;;;;;;4.22;1.92;;;19.70;70.90;;;;;;4968203;28;20039;-69
2021/05/29 12:04:03;;;;;;;4.85;2.17;;;19.60;71.20;;;;;;4966833;28;20485;-70
2021/05/29 12:06:42;;;;;;;3.55;1.65;;;19.60;72.10;;;;;;4967322;28;20039;-69
2021/05/29 12:09:13;;;;;;;5.15;1.88;;;19.60;72.30;;;;;;4953946;28;20031;-68
2021/05/29 12:11:41;;;;;;;6.15;1.67;;;19.50;72.60;;;;;;4964393;28;20443;-69
2021/05/29 12:14:16;;;;;;;4.32;2.20;;;19.50;72.40;;;;;;4967872;28;20031;-68
2021/05/29 12:16:53;;;;;;;4.72;2.05;;;19.40;72.00;;;;;;4967091;28;20450;-69
2021/05/29 12:19:30;;;;;;;4.88;1.58;;;19.40;72.30;;;;;;4963823;28;20031;-69
2021/05/29 12:21:58;;;;;;;4.47;1.58;;;19.20;72.50;;;;;;4965421;28;20039;-70
2021/05/29 12:24:26;;;;;;;4.13;1.50;;;19.10;75.30;;;;;;4978314;28;20138;-68
2021/05/29 12:26:53;;;;;;;3.83;1.70;;;19.10;74.80;;;;;;4966434;28;20131;-69
2021/05/29 12:29:24;;;;;;;5.72;1.60;;;19.20;73.40;;;;;;4964565;28;20034;-69
2021/05/29 12:31:55;;;;;;;2.88;1.77;;;19.20;72.70;;;;;;4964594;28;20035;-69
2021/05/29 12:34:23;;;;;;;3.80;1.73;;;19.20;73.80;;;;;;4962692;28;20081;-69
2021/05/29 12:36:56;;;;;;;3.35;1.55;;;19.20;74.30;;;;;;4966333;28;20055;-69
2021/05/29 12:39:24;;;;;;;4.22;1.88;;;19.10;73.00;;;;;;4965739;28;20075;-68
2021/05/29 12:41:49;;;;;;;5.80;2.08;;;19.10;75.30;;;;;;4966247;28;20070;-69
2021/05/29 12:44:15;;;;;;;7.93;1.67;;;19.20;75.20;;;;;;4980248;28;20096;-69
2021/05/29 12:46:40;;;;;;;3.70;1.50;;;19.30;74.10;;;;;;4967018;28;20615;-69
2021/05/29 12:49:13;;;;;;;4.90;2.00;;;19.40;74.80;;;;;;4967927;28;20062;-68
2021/05/29 12:51:47;;;;;;;5.75;2.40;;;19.40;72.70;;;;;;4966225;28;20055;-67
2021/05/29 12:54:13;;;;;;;5.57;1.70;;;19.30;73.30;;;;;;4967959;28;20043;-69
2021/05/29 12:56:56;;;;;;;3.22;1.70;;;19.40;75.60;;;;;;4966383;28;20027;-69
2021/05/29 12:59:27;;;;;;;5.45;1.85;;;19.50;73.40;;;;;;4979167;28;20046;-69
2021/05/29 13:07:25;;;;;;;3.47;1.73;;;19.00;73.20;;;;;;4966954;28;20070;-69
2021/05/29 13:10:01;;;;;;;3.60;1.67;;;19.00;74.50;;;;;;4961908;28;20086;-69
2021/05/29 13:12:27;;;;;;;4.32;1.95;;;18.80;75.00;;;;;;4982335;28;20049;-69
2021/05/29 13:14:53;;;;;;;4.30;1.63;;;18.80;76.60;;;;;;4966437;28;20031;-69
2021/05/29 13:17:32;;;;;;;3.60;1.50;;;18.70;76.00;;;;;;4967442;28;20864;-69